Time;durP1;ratioP1;P1;durP2;ratioP2;P2;SDS_P1;SDS_P2;PMS_P1;PMS_P2;Temp;Humidity;BMP_temperature;BMP_pressure;BME280_temperature;BME280_humidity;BME280_pressure;Samples;Min_cycle;Max_cycle;Signal;HPM_P1;HPM_P2
2023/06/09 00:00:50;;;;;;;;;;;14.90;99.80;;;;;;5031352;28;19951;-67
2023/06/09 00:03:21;;;;;;;;;;;15.00;99.70;;;;;;5024991;28;20314;-67
2023/06/09 00:05:48;;;;;;;;;;;15.00;99.40;;;;;;5026296;28;19916;-66
2023/06/09 00:08:15;;;;;;;;;;;15.20;98.70;;;;;;5014222;28;19970;-67
2023/06/09 00:10:42;;;;;;;;;;;15.20;98.70;;;;;;5032162;28;19913;-67
2023/06/09 00:13:09;;;;;;;;;;;15.30;98.60;;;;;;5031616;28;20270;-66
2023/06/09 00:15:36;;;;;;;;;;;15.30;98.50;;;;;;5031518;28;20008;-67
2023/06/09 00:18:03;;;;;;;;;;;15.50;97.60;;;;;;5032759;28;19913;-66
2023/06/09 00:20:33;;;;;;;;;;;15.60;97.40;;;;;;5032359;28;19917;-67
2023/06/09 00:23:01;;;;;;;;;;;15.60;97.50;;;;;;5032170;28;19917;-66
2023/06/09 00:25:28;;;;;;;;;;;15.70;97.20;;;;;;5031063;28;19909;-65
2023/06/09 00:27:54;;;;;;;;;;;15.80;97.00;;;;;;5032253;28;19909;-66
2023/06/09 00:30:22;;;;;;;;;;;15.80;97.00;;;;;;5031939;28;19913;-66
2023/06/09 00:32:49;;;;;;;;;;;15.90;97.20;;;;;;5031897;28;19999;-62
2023/06/09 00:35:16;;;;;;;;;;;15.90;96.50;;;;;;5022122;28;20319;-68
2023/06/09 00:37:42;;;;;;;;;;;16.00;96.30;;;;;;5011928;28;19909;-68
2023/06/09 00:40:09;;;;;;;;;;;16.10;96.70;;;;;;5013709;28;19910;-62
2023/06/09 00:42:36;;;;;;;;;;;16.20;96.30;;;;;;5031740;28;19924;-62
2023/06/09 00:45:03;;;;;;;;;;;16.30;96.10;;;;;;5031150;28;19943;-61
2023/06/09 00:47:30;;;;;;;;;;;16.30;96.00;;;;;;5031374;28;19983;-61
2023/06/09 00:49:57;;;;;;;;;;;16.40;95.70;;;;;;5032016;28;19928;-66
2023/06/09 00:52:23;;;;;;;;;;;16.50;95.90;;;;;;5031049;28;19927;-64
2023/06/09 00:54:52;;;;;;;;;;;16.70;95.70;;;;;;5031242;28;19909;-66
2023/06/09 00:57:19;;;;;;;;;;;16.90;96.00;;;;;;5031520;28;19932;-65
2023/06/09 00:59:45;;;;;;;;;;;17.00;95.30;;;;;;5031729;28;19919;-63
2023/06/09 01:02:15;;;;;;;;;;;17.00;95.30;;;;;;5031607;28;19967;-65
2023/06/09 01:04:49;;;;;;;;;;;17.00;95.40;;;;;;5031446;28;19913;-65
2023/06/09 01:07:24;;;;;;;;;;;17.00;95.50;;;;;;5031305;28;20488;-66
2023/06/09 01:10:02;;;;;;;;;;;17.00;95.90;;;;;;5031061;28;19909;-63
2023/06/09 01:12:29;;;;;;;;;;;17.00;96.00;;;;;;5033419;28;20277;-61
2023/06/09 01:15:03;;;;;;;;;;;17.00;95.70;;;;;;5034965;28;19910;-64
2023/06/09 01:17:32;;;;;;;;;;;17.10;95.80;;;;;;5034757;28;19913;-65
2023/06/09 01:20:05;;;;;;;;;;;17.10;95.60;;;;;;5035283;28;19909;-63
2023/06/09 01:22:58;;;;;;;;;;;17.20;95.40;;;;;;5034574;28;20325;-65
2023/06/09 01:25:34;;;;;;;;;;;17.30;95.40;;;;;;5034936;28;19909;-64
2023/06/09 01:28:03;;;;;;;;;;;17.30;94.90;;;;;;5035078;28;19916;-63
2023/06/09 01:30:32;;;;;;;;;;;17.50;95.00;;;;;;5035201;28;19963;-61
2023/06/09 01:33:00;;;;;;;;;;;17.50;94.00;;;;;;5035294;28;19909;-63
2023/06/09 01:35:26;;;;;;;;;;;17.50;94.10;;;;;;5034669;28;19909;-60
2023/06/09 01:37:53;;;;;;;;;;;17.60;93.70;;;;;;5034201;28;20438;-63
2023/06/09 01:40:20;;;;;;;;;;;17.60;93.90;;;;;;5034505;28;19916;-67
2023/06/09 01:42:47;;;;;;;;;;;17.60;94.20;;;;;;5035103;28;19909;-67
2023/06/09 01:45:13;;;;;;;;;;;17.70;94.10;;;;;;5034611;28;19909;-65
2023/06/09 01:47:40;;;;;;;;;;;17.70;93.50;;;;;;5033440;28;20382;-65
2023/06/09 01:50:07;;;;;;;;;;;17.80;93.50;;;;;;5034466;28;19921;-63
2023/06/09 01:52:51;;;;;;;;;;;17.90;93.80;;;;;;5034982;28;19915;-67
2023/06/09 01:55:30;;;;;;;;;;;17.80;93.00;;;;;;5034223;28;19909;-63
2023/06/09 01:58:00;;;;;;;;;;;18.00;92.70;;;;;;5033311;28;20051;-66
2023/06/09 02:00:27;;;;;;;;;;;17.90;92.30;;;;;;5034211;28;19913;-61
2023/06/09 02:02:56;;;;;;;;;;;18.00;92.50;;;;;;5034412;28;19921;-60
2023/06/09 02:05:23;;;;;;;;;;;17.90;92.60;;;;;;5034329;28;19909;-61
2023/06/09 02:07:51;;;;;;;;;;;17.90;92.70;;;;;;5033760;28;19909;-60
2023/06/09 02:10:19;;;;;;;;;;;18.00;92.50;;;;;;5033993;28;19917;-60
2023/06/09 02:12:46;;;;;;;;;;;18.10;92.50;;;;;;5034394;28;19919;-64
2023/06/09 02:15:12;;;;;;;;;;;18.00;92.30;;;;;;5034277;28;19909;-63
2023/06/09 02:17:42;;;;;;;;;;;18.10;92.80;;;;;;5015979;28;19921;-63
2023/06/09 02:20:10;;;;;;;;;;;18.10;92.60;;;;;;5033398;28;20012;-63
2023/06/09 02:22:37;;;;;;;;;;;18.10;92.80;;;;;;5033967;28;20313;-64
2023/06/09 02:25:04;;;;;;;;;;;18.20;92.20;;;;;;5033844;28;20277;-61
2023/06/09 02:27:31;;;;;;;;;;;18.20;92.50;;;;;;5033542;28;19921;-62
2023/06/09 02:29:58;;;;;;;;;;;18.30;92.20;;;;;;5034042;28;19913;-61
2023/06/09 02:32:24;;;;;;;;;;;18.30;92.60;;;;;;5034058;28;19909;-65
2023/06/09 02:34:51;;;;;;;;;;;18.30;92.60;;;;;;5033175;28;19924;-62
2023/06/09 02:37:17;;;;;;;;;;;18.40;92.10;;;;;;5033804;28;20289;-61
2023/06/09 02:39:44;;;;;;;;;;;18.40;91.60;;;;;;5032717;28;19955;-61
2023/06/09 02:42:11;;;;;;;;;;;18.40;91.90;;;;;;5033127;28;20286;-62
2023/06/09 02:44:37;;;;;;;;;;;18.50;92.10;;;;;;5032049;28;19963;-61
2023/06/09 02:47:05;;;;;;;;;;;18.60;91.90;;;;;;5033257;28;20259;-65
2023/06/09 02:49:31;;;;;;;;;;;18.80;92.00;;;;;;5032654;28;20361;-64
2023/06/09 02:51:58;;;;;;;;;;;18.90;91.30;;;;;;5033443;28;20353;-62
2023/06/09 02:54:24;;;;;;;;;;;19.10;91.80;;;;;;5033432;28;19955;-61
2023/06/09 02:56:52;;;;;;;;;;;19.40;91.10;;;;;;5033709;28;19916;-62
2023/06/09 02:59:19;;;;;;;;;;;19.70;90.90;;;;;;5029215;28;20293;-62
2023/06/09 03:01:46;;;;;;;;;;;19.80;90.80;;;;;;5015372;28;20362;-63
2023/06/09 03:04:12;;;;;;;;;;;19.80;90.30;;;;;;5011511;28;19928;-62
2023/06/09 03:06:43;;;;;;;;;;;19.70;90.30;;;;;;5031398;28;19932;-62
2023/06/09 03:09:12;;;;;;;;;;;19.60;90.30;;;;;;5030405;28;19952;-63
2023/06/09 03:11:39;;;;;;;;;;;19.40;90.80;;;;;;5031197;28;20370;-62
2023/06/09 03:14:07;;;;;;;;;;;19.40;90.80;;;;;;5031687;28;19913;-67
2023/06/09 03:16:33;;;;;;;;;;;19.30;90.90;;;;;;5031140;28;19909;-61
2023/06/09 03:19:00;;;;;;;;;;;19.40;91.30;;;;;;5033074;28;20364;-61
2023/06/09 03:21:27;;;;;;;;;;;19.60;91.20;;;;;;5032596;28;20369;-63
2023/06/09 03:23:54;;;;;;;;;;;20.00;91.40;;;;;;5032626;28;19916;-62
2023/06/09 03:26:21;;;;;;;;;;;20.50;90.10;;;;;;5032383;28;19916;-61
2023/06/09 03:28:47;;;;;;;;;;;20.70;90.20;;;;;;5033153;28;20051;-61
2023/06/09 03:31:14;;;;;;;;;;;20.90;88.90;;;;;;5032381;28;20413;-60
2023/06/09 03:33:41;;;;;;;;;;;21.20;88.60;;;;;;5032844;28;19910;-61
2023/06/09 03:36:08;;;;;;;;;;;21.60;87.80;;;;;;5031785;28;19913;-61
2023/06/09 03:38:35;;;;;;;;;;;22.40;85.30;;;;;;5033221;28;19909;-60
2023/06/09 03:41:02;;;;;;;;;;;23.40;84.20;;;;;;5031464;28;19917;-60
2023/06/09 03:43:29;;;;;;;;;;;24.30;80.50;;;;;;5032233;28;20028;-60
2023/06/09 03:45:56;;;;;;;;;;;24.80;79.60;;;;;;5031989;28;19972;-60
2023/06/09 03:48:23;;;;;;;;;;;25.20;78.10;;;;;;5032384;28;20325;-62
2023/06/09 03:50:49;;;;;;;;;;;25.70;77.50;;;;;;5032065;28;19917;-61
2023/06/09 03:53:16;;;;;;;;;;;26.10;75.90;;;;;;5032289;28;19915;-60
2023/06/09 03:55:42;;;;;;;;;;;26.40;73.80;;;;;;5032132;28;19935;-61
2023/06/09 03:58:12;;;;;;;;;;;26.00;71.90;;;;;;5032849;28;19949;-61
2023/06/09 04:00:39;;;;;;;;;;;25.80;73.10;;;;;;5031546;28;20277;-61
2023/06/09 04:03:07;;;;;;;;;;;26.20;73.40;;;;;;5032048;28;19920;-61
2023/06/09 04:05:33;;;;;;;;;;;26.70;70.80;;;;;;5031587;28;20354;-63
2023/06/09 04:08:00;;;;;;;;;;;26.50;70.30;;;;;;5032656;28;19910;-61
2023/06/09 04:10:27;;;;;;;;;;;25.80;71.40;;;;;;5031838;28;19966;-60
2023/06/09 04:12:53;;;;;;;;;;;25.20;72.60;;;;;;5032007;28;20387;-60
2023/06/09 04:15:20;;;;;;;;;;;24.40;73.70;;;;;;5031760;28;20357;-59
2023/06/09 04:17:46;;;;;;;;;;;23.50;74.60;;;;;;5031480;28;19913;-60
2023/06/09 04:20:13;;;;;;;;;;;22.90;76.50;;;;;;5031985;28;20360;-62
2023/06/09 04:22:49;;;;;;;;;;;22.40;77.20;;;;;;5031585;28;20309;-62
2023/06/09 04:25:16;;;;;;;;;;;22.00;78.20;;;;;;5031386;28;20377;-61
2023/06/09 04:27:43;;;;;;;;;;;21.70;78.80;;;;;;5031572;28;20304;-61
2023/06/09 04:30:11;;;;;;;;;;;21.40;79.10;;;;;;5032345;28;19992;-66
2023/06/09 04:32:38;;;;;;;;;;;21.30;79.70;;;;;;5031866;28;19913;-61
2023/06/09 04:35:05;;;;;;;;;;;21.20;79.50;;;;;;5031238;28;19969;-61
2023/06/09 04:37:32;;;;;;;;;;;21.10;80.10;;;;;;5031019;28;19913;-60
2023/06/09 04:39:59;;;;;;;;;;;21.10;81.00;;;;;;5031608;28;20365;-62
2023/06/09 04:42:25;;;;;;;;;;;20.90;80.00;;;;;;5030998;28;20543;-62
2023/06/09 04:44:53;;;;;;;;;;;20.90;80.70;;;;;;5026441;28;19924;-62
2023/06/09 04:47:20;;;;;;;;;;;21.00;80.70;;;;;;5015451;28;19910;-61
2023/06/09 04:49:49;;;;;;;;;;;21.10;81.00;;;;;;5030474;28;20396;-60
2023/06/09 04:52:20;;;;;;;;;;;21.10;80.40;;;;;;5035966;28;20316;-62
2023/06/09 04:54:49;;;;;;;;;;;21.10;79.90;;;;;;5035878;28;20448;-60
2023/06/09 04:57:17;;;;;;;;;;;21.20;80.30;;;;;;5035751;28;19913;-60
2023/06/09 04:59:46;;;;;;;;;;;21.20;79.70;;;;;;5035989;28;19987;-60
2023/06/09 05:02:13;;;;;;;;;;;21.40;80.10;;;;;;5035608;28;20359;-63
2023/06/09 05:04:39;;;;;;;;;;;21.40;80.30;;;;;;5035172;28;20039;-62
2023/06/09 05:07:06;;;;;;;;;;;21.40;79.00;;;;;;5034128;28;19946;-60
2023/06/09 05:09:33;;;;;;;;;;;21.40;79.70;;;;;;5035403;28;19913;-60
2023/06/09 05:11:59;;;;;;;;;;;21.30;79.20;;;;;;5034662;28;19913;-62
2023/06/09 05:14:26;;;;;;;;;;;21.50;79.80;;;;;;5032872;28;19978;-59
2023/06/09 05:16:53;;;;;;;;;;;21.70;79.60;;;;;;5021977;28;19910;-60
2023/06/09 05:19:21;;;;;;;;;;;21.80;79.20;;;;;;5015414;28;19909;-60
2023/06/09 05:21:47;;;;;;;;;;;21.80;80.20;;;;;;5013930;28;20740;-60
2023/06/09 05:24:14;;;;;;;;;;;21.50;79.00;;;;;;5021550;28;19909;-61
2023/06/09 05:26:41;;;;;;;;;;;21.40;80.20;;;;;;5034128;28;19909;-60
2023/06/09 05:29:07;;;;;;;;;;;21.30;80.30;;;;;;5034524;28;19910;-59
2023/06/09 05:31:34;;;;;;;;;;;21.40;81.50;;;;;;5034280;28;19913;-65
2023/06/09 05:34:00;;;;;;;;;;;21.30;79.90;;;;;;5034509;28;20670;-61
2023/06/09 05:36:27;;;;;;;;;;;21.30;79.90;;;;;;5034367;28;19909;-59
2023/06/09 05:38:54;;;;;;;;;;;21.40;80.20;;;;;;5035168;28;19909;-65
2023/06/09 05:41:21;;;;;;;;;;;21.60;79.10;;;;;;5034717;28;19913;-60
2023/06/09 05:43:47;;;;;;;;;;;21.80;78.80;;;;;;5034675;28;19916;-60
2023/06/09 05:46:14;;;;;;;;;;;21.60;79.90;;;;;;5034115;28;20013;-60
2023/06/09 05:48:41;;;;;;;;;;;21.50;80.30;;;;;;5031993;28;19976;-60
2023/06/09 05:51:11;;;;;;;;;;;21.30;79.60;;;;;;5026908;28;20459;-63
2023/06/09 05:53:38;;;;;;;;;;;21.30;81.50;;;;;;5034691;28;19924;-61
2023/06/09 05:56:05;;;;;;;;;;;21.30;80.90;;;;;;5033630;28;19916;-61
2023/06/09 05:58:33;;;;;;;;;;;21.40;80.60;;;;;;5033968;28;19915;-61
2023/06/09 06:01:00;;;;;;;;;;;21.50;80.90;;;;;;5033497;28;19939;-61
2023/06/09 06:03:27;;;;;;;;;;;21.60;80.80;;;;;;5034281;28;19909;-62
2023/06/09 06:05:53;;;;;;;;;;;21.80;80.10;;;;;;5033237;28;19964;-60
2023/06/09 06:08:20;;;;;;;;;;;22.00;79.20;;;;;;5031045;28;19919;-60
2023/06/09 06:10:47;;;;;;;;;;;22.10;80.00;;;;;;5033152;28;19909;-61
2023/06/09 06:13:13;;;;;;;;;;;21.70;79.50;;;;;;5033883;28;19909;-61
2023/06/09 06:15:40;;;;;;;;;;;21.40;80.90;;;;;;5033477;28;19932;-61
2023/06/09 06:18:07;;;;;;;;;;;21.20;80.90;;;;;;5034379;28;19913;-60
2023/06/09 06:20:34;;;;;;;;;;;20.90;82.10;;;;;;5033561;28;19940;-63
2023/06/09 06:23:01;;;;;;;;;;;20.60;81.90;;;;;;5032886;28;19917;-61
2023/06/09 06:25:28;;;;;;;;;;;20.30;82.40;;;;;;5029857;28;19913;-62
2023/06/09 06:27:56;;;;;;;;;;;20.00;83.50;;;;;;5031981;28;19916;-61
2023/06/09 06:30:23;;;;;;;;;;;19.70;84.30;;;;;;5033782;28;19994;-62
2023/06/09 06:32:50;;;;;;;;;;;19.50;85.00;;;;;;5034175;28;19916;-66
2023/06/09 06:35:23;;;;;;;;;;;19.30;85.90;;;;;;5028268;28;19924;-62
2023/06/09 06:37:50;;;;;;;;;;;19.20;87.00;;;;;;5033218;28;19964;-66
2023/06/09 06:40:17;;;;;;;;;;;19.00;87.10;;;;;;5032006;28;20388;-67
2023/06/09 06:42:44;;;;;;;;;;;18.90;87.50;;;;;;5034271;28;19924;-61
2023/06/09 06:45:10;;;;;;;;;;;18.70;87.80;;;;;;5034266;28;20003;-60
2023/06/09 06:47:37;;;;;;;;;;;18.70;88.10;;;;;;5034303;28;19916;-64
2023/06/09 06:50:04;;;;;;;;;;;18.60;88.10;;;;;;5033984;28;20386;-65
2023/06/09 06:52:33;;;;;;;;;;;18.40;88.80;;;;;;5034310;28;19959;-63
2023/06/09 06:54:59;;;;;;;;;;;18.40;88.80;;;;;;5033504;28;19916;-63
2023/06/09 06:57:27;;;;;;;;;;;18.30;89.30;;;;;;5033682;28;20015;-61
2023/06/09 06:59:53;;;;;;;;;;;18.10;89.60;;;;;;5033819;28;20378;-61
2023/06/09 07:02:20;;;;;;;;;;;18.10;89.60;;;;;;5033650;28;19974;-62
2023/06/09 07:04:46;;;;;;;;;;;18.00;89.90;;;;;;5033207;28;19921;-60
2023/06/09 07:07:13;;;;;;;;;;;18.00;90.20;;;;;;5033782;28;20062;-63
2023/06/09 07:09:40;;;;;;;;;;;18.00;90.30;;;;;;5029877;28;19909;-63
2023/06/09 07:12:07;;;;;;;;;;;17.80;90.30;;;;;;5036741;28;19923;-69
2023/06/09 07:14:35;;;;;;;;;;;17.80;90.60;;;;;;5053140;28;20290;-66
2023/06/09 07:17:02;;;;;;;;;;;17.70;90.60;;;;;;5037703;28;20324;-60
2023/06/09 07:19:28;;;;;;;;;;;17.70;90.80;;;;;;5045006;28;19913;-62
2023/06/09 07:21:55;;;;;;;;;;;17.60;91.00;;;;;;5032658;28;19921;-61
2023/06/09 07:24:21;;;;;;;;;;;17.50;91.10;;;;;;5032724;28;19933;-62
2023/06/09 07:26:48;;;;;;;;;;;17.50;91.70;;;;;;5014181;28;20335;-61
2023/06/09 07:29:15;;;;;;;;;;;17.40;91.40;;;;;;5032197;28;19909;-62
2023/06/09 07:31:41;;;;;;;;;;;17.40;91.50;;;;;;5031322;28;20028;-60
2023/06/09 07:34:08;;;;;;;;;;;17.40;91.60;;;;;;5033005;28;19909;-61
2023/06/09 07:36:35;;;;;;;;;;;17.30;91.90;;;;;;5026092;28;19913;-60
2023/06/09 07:39:03;;;;;;;;;;;17.30;92.10;;;;;;5032588;28;20273;-60
2023/06/09 07:41:30;;;;;;;;;;;17.10;92.30;;;;;;5032409;28;19925;-61
2023/06/09 07:43:57;;;;;;;;;;;17.00;92.50;;;;;;5032483;28;20365;-64
2023/06/09 07:46:24;;;;;;;;;;;17.10;92.50;;;;;;5032334;28;20441;-61
2023/06/09 07:48:51;;;;;;;;;;;17.00;92.50;;;;;;5032202;28;19917;-61
2023/06/09 07:51:18;;;;;;;;;;;17.00;92.70;;;;;;5032464;28;20446;-62
2023/06/09 07:53:46;;;;;;;;;;;17.00;92.90;;;;;;5032881;28;19913;-61
2023/06/09 07:56:13;;;;;;;;;;;17.00;93.00;;;;;;5032009;28;19909;-62
2023/06/09 07:58:40;;;;;;;;;;;16.90;93.00;;;;;;5031009;28;19980;-62
2023/06/09 08:01:07;;;;;;;;;;;16.90;92.90;;;;;;5011942;28;19917;-61
2023/06/09 08:03:35;;;;;;;;;;;16.90;93.00;;;;;;5012567;28;20363;-61
2023/06/09 08:06:02;;;;;;;;;;;16.90;93.10;;;;;;5010410;28;19909;-63
2023/06/09 08:08:31;;;;;;;;;;;16.80;93.30;;;;;;5011586;28;19910;-62
2023/06/09 08:11:00;;;;;;;;;;;16.80;93.40;;;;;;5030589;28;19963;-62
2023/06/09 08:13:30;;;;;;;;;;;16.70;93.60;;;;;;5032412;28;19909;-62
2023/06/09 08:15:57;;;;;;;;;;;16.70;93.80;;;;;;5031783;28;19959;-64
2023/06/09 08:18:23;;;;;;;;;;;16.60;93.90;;;;;;5031868;28;19963;-60
2023/06/09 08:20:50;;;;;;;;;;;16.60;94.10;;;;;;5013720;28;19909;-62
2023/06/09 08:23:20;;;;;;;;;;;16.50;94.10;;;;;;5011903;28;19945;-61
2023/06/09 08:25:47;;;;;;;;;;;16.50;94.20;;;;;;5021593;28;20322;-66
2023/06/09 08:28:14;;;;;;;;;;;16.50;94.40;;;;;;5032234;28;19909;-64
2023/06/09 08:30:41;;;;;;;;;;;16.40;94.60;;;;;;5031550;28;19999;-63
2023/06/09 08:33:08;;;;;;;;;;;16.40;94.80;;;;;;5031557;28;20671;-63
2023/06/09 08:35:34;;;;;;;;;;;16.40;95.00;;;;;;5031653;28;19909;-64
2023/06/09 08:38:01;;;;;;;;;;;16.20;95.00;;;;;;5031601;28;20277;-62
2023/06/09 08:40:27;;;;;;;;;;;16.20;95.20;;;;;;5031426;28;19947;-65
2023/06/09 08:42:58;;;;;;;;;;;16.20;95.30;;;;;;5031348;28;19917;-61
2023/06/09 08:45:25;;;;;;;;;;;16.20;95.40;;;;;;5031519;28;19909;-66
2023/06/09 08:47:55;;;;;;;;;;;16.20;95.50;;;;;;5031470;28;20362;-65
2023/06/09 08:50:22;;;;;;;;;;;16.20;95.60;;;;;;5031036;28;19921;-61
2023/06/09 08:52:48;;;;;;;;;;;16.20;95.60;;;;;;5031216;28;19909;-60
2023/06/09 08:55:15;;;;;;;;;;;16.10;95.80;;;;;;5031077;28;19913;-62
2023/06/09 08:57:42;;;;;;;;;;;16.10;96.10;;;;;;5031465;28;19913;-65
2023/06/09 09:00:11;;;;;;;;;;;16.00;96.10;;;;;;5032022;28;19909;-64
2023/06/09 09:02:37;;;;;;;;;;;16.10;96.60;;;;;;5015220;28;20559;-63
2023/06/09 09:05:04;;;;;;;;;;;15.90;96.70;;;;;;5031108;28;20370;-65
2023/06/09 09:07:31;;;;;;;;;;;16.00;96.70;;;;;;5011859;28;19913;-66
2023/06/09 09:10:00;;;;;;;;;;;15.90;96.80;;;;;;5021531;28;20377;-62
2023/06/09 09:12:27;;;;;;;;;;;15.90;96.90;;;;;;5031831;28;20062;-62
2023/06/09 09:14:54;;;;;;;;;;;15.90;97.10;;;;;;5031735;28;20333;-62
2023/06/09 09:17:20;;;;;;;;;;;15.90;97.10;;;;;;5029831;28;19909;-65
2023/06/09 09:19:48;;;;;;;;;;;15.90;97.30;;;;;;5026690;28;19937;-60
2023/06/09 09:22:15;;;;;;;;;;;15.90;97.40;;;;;;5028822;28;20008;-61
2023/06/09 09:24:44;;;;;;;;;;;15.80;97.40;;;;;;5030426;28;20337;-65
2023/06/09 09:27:18;;;;;;;;;;;15.80;97.60;;;;;;5030350;28;19913;-66
2023/06/09 09:29:46;;;;;;;;;;;15.80;97.80;;;;;;5029786;28;20317;-65
2023/06/09 09:32:13;;;;;;;;;;;15.70;97.90;;;;;;5030659;28;19963;-65
2023/06/09 09:34:41;;;;;;;;;;;15.70;97.90;;;;;;5035138;28;19909;-67
2023/06/09 09:37:11;;;;;;;;;;;15.70;98.10;;;;;;4996199;28;20390;-62
2023/06/09 09:39:48;;;;;;;;;;;15.60;98.20;;;;;;5015330;28;19909;-68
2023/06/09 09:42:15;;;;;;;;;;;15.60;98.40;;;;;;5015988;28;20012;-67
2023/06/09 09:44:42;;;;;;;;;;;15.60;98.50;;;;;;5015876;28;20003;-61
2023/06/09 09:47:19;;;;;;;;;;;15.50;98.60;;;;;;5015488;28;19913;-62
2023/06/09 09:50:02;;;;;;;;;;;15.50;98.70;;;;;;5015178;28;19981;-64
2023/06/09 09:52:30;;;;;;;;;;;15.50;98.80;;;;;;5015618;28;19937;-60
2023/06/09 09:55:00;;;;;;;;;;;15.50;99.00;;;;;;5015949;28;19913;-66
2023/06/09 09:57:29;;;;;;;;;;;15.40;99.10;;;;;;5015388;28;19920;-63
2023/06/09 09:59:59;;;;;;;;;;;15.40;99.00;;;;;;5015314;28;19917;-61
2023/06/09 10:02:26;;;;;;;;;;;15.30;99.30;;;;;;5014913;28;20024;-63
2023/06/09 10:04:56;;;;;;;;;;;15.30;99.40;;;;;;5015232;28;20378;-63
2023/06/09 10:07:24;;;;;;;;;;;15.30;99.50;;;;;;5015062;28;20281;-63
2023/06/09 10:09:51;;;;;;;;;;;15.20;99.60;;;;;;5011429;28;20005;-64
2023/06/09 10:12:19;;;;;;;;;;;15.20;99.80;;;;;;5014303;28;19963;-62
2023/06/09 10:14:49;;;;;;;;;;;15.10;99.90;;;;;;5014325;28;19909;-65
2023/06/09 10:17:18;;;;;;;;;;;15.10;99.90;;;;;;5014492;28;19909;-66
2023/06/09 10:19:46;;;;;;;;;;;15.10;99.90;;;;;;5014284;28;19932;-65
2023/06/09 10:22:13;;;;;;;;;;;15.00;99.90;;;;;;5014427;28;19928;-65
2023/06/09 10:24:40;;;;;;;;;;;14.90;99.90;;;;;;5014838;28;19914;-65
2023/06/09 10:27:07;;;;;;;;;;;14.90;99.90;;;;;;5014385;28;20374;-64
2023/06/09 10:29:34;;;;;;;;;;;14.90;99.90;;;;;;5014131;28;20397;-64
2023/06/09 10:32:01;;;;;;;;;;;14.80;99.90;;;;;;5014452;28;19910;-66
2023/06/09 10:34:28;;;;;;;;;;;14.80;99.90;;;;;;5014845;28;19909;-64
2023/06/09 10:36:55;;;;;;;;;;;14.70;99.90;;;;;;5014003;28;20481;-65
2023/06/09 10:39:22;;;;;;;;;;;14.70;99.90;;;;;;5014286;28;19964;-65
2023/06/09 10:41:55;;;;;;;;;;;14.70;99.90;;;;;;5014322;28;20019;-65
2023/06/09 10:44:22;;;;;;;;;;;14.60;99.90;;;;;;5014250;28;20259;-65
2023/06/09 10:46:50;;;;;;;;;;;14.50;99.90;;;;;;5014070;28;19916;-65
2023/06/09 10:49:29;;;;;;;;;;;14.60;99.90;;;;;;5013670;28;19933;-66
2023/06/09 10:51:56;;;;;;;;;;;14.50;99.90;;;;;;5014169;28;19909;-64
2023/06/09 10:54:23;;;;;;;;;;;14.50;99.90;;;;;;5014118;28;20373;-65
2023/06/09 10:56:54;;;;;;;;;;;14.50;99.90;;;;;;5013500;28;20010;-65
2023/06/09 10:59:26;;;;;;;;;;;14.40;99.90;;;;;;5013582;28;19910;-65
2023/06/09 11:02:05;;;;;;;;;;;14.50;99.90;;;;;;5013682;28;19923;-66
2023/06/09 11:04:44;;;;;;;;;;;14.40;99.90;;;;;;5014133;28;19910;-64
2023/06/09 11:07:14;;;;;;;;;;;14.40;99.90;;;;;;5013310;28;20242;-66
2023/06/09 11:10:01;;;;;;;;;;;14.40;99.90;;;;;;5013663;28;19952;-67
2023/06/09 11:12:42;;;;;;;;;;;14.30;99.90;;;;;;5013569;28;20558;-64
2023/06/09 11:15:13;;;;;;;;;;;14.30;99.90;;;;;;5013538;28;19914;-64
2023/06/09 11:17:41;;;;;;;;;;;14.30;99.90;;;;;;5013609;28;20316;-62
2023/06/09 11:22:35;;;;;;;;;;;14.30;99.90;;;;;;5013538;28;19918;-65
2023/06/09 11:25:02;;;;;;;;;;;14.10;99.90;;;;;;5013313;28;19909;-64
2023/06/09 11:27:32;;;;;;;;;;;14.10;99.90;;;;;;5013126;28;19910;-65
2023/06/09 11:30:06;;;;;;;;;;;14.10;99.90;;;;;;5012864;28;19988;-63
2023/06/09 11:32:46;;;;;;;;;;;14.20;99.90;;;;;;5012998;28;19916;-62
2023/06/09 11:35:22;;;;;;;;;;;14.20;99.80;;;;;;5012727;28;20366;-65
2023/06/09 11:37:52;;;;;;;;;;;14.20;99.70;;;;;;5007260;28;19910;-64
2023/06/09 11:40:19;;;;;;;;;;;14.20;99.70;;;;;;5012602;28;20025;-63
2023/06/09 11:42:46;;;;;;;;;;;14.20;99.60;;;;;;5013261;28;19918;-64
2023/06/09 11:45:13;;;;;;;;;;;14.20;99.50;;;;;;5013594;28;19968;-64
2023/06/09 11:47:43;;;;;;;;;;;14.10;99.60;;;;;;5013051;28;20362;-66
2023/06/09 11:50:14;;;;;;;;;;;14.10;99.60;;;;;;5012461;28;19979;-64
2023/06/09 11:52:41;;;;;;;;;;;14.10;99.60;;;;;;5013017;28;19956;-63
2023/06/09 11:55:09;;;;;;;;;;;14.00;99.50;;;;;;5012846;28;19910;-64
2023/06/09 11:57:37;;;;;;;;;;;14.00;99.60;;;;;;5012875;28;19972;-64
2023/06/09 12:00:12;;;;;;;;;;;13.90;99.70;;;;;;5012511;28;19909;-66
2023/06/09 12:02:43;;;;;;;;;;;13.90;99.60;;;;;;5012659;28;19918;-65
2023/06/09 12:05:13;;;;;;;;;;;13.90;99.50;;;;;;5013035;28;19921;-65
2023/06/09 12:07:45;;;;;;;;;;;13.90;99.70;;;;;;5011553;28;19910;-65
2023/06/09 12:10:20;;;;;;;;;;;13.90;99.30;;;;;;5012428;28;20382;-63
2023/06/09 12:12:50;;;;;;;;;;;13.90;99.30;;;;;;5012991;28;19909;-65
2023/06/09 12:15:18;;;;;;;;;;;13.90;99.40;;;;;;5013456;28;19914;-65
2023/06/09 12:17:46;;;;;;;;;;;13.90;99.40;;;;;;5013072;28;19909;-66
2023/06/09 12:20:28;;;;;;;;;;;13.90;99.30;;;;;;5012810;28;19914;-65
2023/06/09 12:22:56;;;;;;;;;;;13.80;99.50;;;;;;5012713;28;19922;-65
2023/06/09 12:25:26;;;;;;;;;;;13.80;99.50;;;;;;5012768;28;19910;-65
2023/06/09 12:28:13;;;;;;;;;;;13.70;99.60;;;;;;5012261;28;20287;-65
2023/06/09 12:30:48;;;;;;;;;;;13.80;99.70;;;;;;5012402;28;19933;-65
2023/06/09 12:33:35;;;;;;;;;;;13.80;99.70;;;;;;5012947;28;20259;-65
2023/06/09 12:36:06;;;;;;;;;;;13.70;99.50;;;;;;5012459;28;19916;-66
2023/06/09 12:38:43;;;;;;;;;;;13.80;99.60;;;;;;5012228;28;19916;-67
2023/06/09 12:41:14;;;;;;;;;;;13.70;99.60;;;;;;5012413;28;19917;-66
2023/06/09 12:43:45;;;;;;;;;;;13.70;99.70;;;;;;5012683;28;20374;-65
2023/06/09 12:46:13;;;;;;;;;;;13.70;99.50;;;;;;5011135;28;19913;-64
2023/06/09 12:49:01;;;;;;;;;;;13.60;99.40;;;;;;5012233;28;19917;-65
2023/06/09 12:51:28;;;;;;;;;;;13.60;99.40;;;;;;5011122;28;19935;-66
2023/06/09 12:53:55;;;;;;;;;;;13.60;99.30;;;;;;5012726;28;20005;-64
2023/06/09 12:56:22;;;;;;;;;;;13.60;99.40;;;;;;5012406;28;19917;-67
2023/06/09 12:58:48;;;;;;;;;;;13.70;99.30;;;;;;5012896;28;19917;-67
2023/06/09 13:01:15;;;;;;;;;;;13.70;99.10;;;;;;5012615;28;20323;-66
2023/06/09 13:03:42;;;;;;;;;;;13.70;99.00;;;;;;5012433;28;19920;-66
2023/06/09 13:06:09;;;;;;;;;;;13.70;99.30;;;;;;5012736;28;19925;-67
2023/06/09 13:08:36;;;;;;;;;;;13.70;99.00;;;;;;5014908;28;19909;-65
2023/06/09 13:11:02;;;;;;;;;;;13.70;99.20;;;;;;5016780;28;19910;-67
2023/06/09 13:13:30;;;;;;;;;;;13.70;99.30;;;;;;5016588;28;19944;-65
2023/06/09 13:15:57;;;;;;;;;;;13.60;99.40;;;;;;5015761;28;20053;-67
2023/06/09 13:18:24;;;;;;;;;;;13.60;99.30;;;;;;5016627;28;19953;-65
2023/06/09 13:20:51;;;;;;;;;;;13.60;99.40;;;;;;5016672;28;19998;-65
2023/06/09 13:23:18;;;;;;;;;;;13.60;99.60;;;;;;5016598;28;19920;-66
2023/06/09 13:25:45;;;;;;;;;;;13.50;99.50;;;;;;5016158;28;20359;-65
2023/06/09 13:28:14;;;;;;;;;;;13.60;99.90;;;;;;5016387;28;19909;-65
2023/06/09 13:30:41;;;;;;;;;;;13.60;99.90;;;;;;5016405;28;19996;-65
2023/06/09 13:33:08;;;;;;;;;;;13.50;99.80;;;;;;5016979;28;19913;-65
2023/06/09 13:35:35;;;;;;;;;;;13.40;99.90;;;;;;5017416;28;19909;-65
2023/06/09 13:38:03;;;;;;;;;;;13.40;99.90;;;;;;4998422;28;19964;-66
2023/06/09 13:40:30;;;;;;;;;;;13.40;99.90;;;;;;4997270;28;19914;-65
2023/06/09 13:42:57;;;;;;;;;;;13.40;99.90;;;;;;4996490;28;19922;-65
2023/06/09 13:45:23;;;;;;;;;;;13.40;99.90;;;;;;4996621;28;19956;-65
2023/06/09 13:47:55;;;;;;;;;;;13.30;99.90;;;;;;4996515;28;19910;-64
2023/06/09 13:50:25;;;;;;;;;;;13.30;99.90;;;;;;4996083;28;19921;-65
2023/06/09 13:52:51;;;;;;;;;;;13.30;99.90;;;;;;4996067;28;19913;-65
2023/06/09 13:55:19;;;;;;;;;;;13.30;99.90;;;;;;5011460;28;19917;-65
2023/06/09 13:57:45;;;;;;;;;;;13.30;99.90;;;;;;4996237;28;19913;-67
2023/06/09 14:00:13;;;;;;;;;;;13.20;99.90;;;;;;4996362;28;20374;-65
2023/06/09 14:02:40;;;;;;;;;;;13.30;99.90;;;;;;4996216;28;19917;-66
2023/06/09 14:05:12;;;;;;;;;;;13.20;99.90;;;;;;4996088;28;19914;-66
2023/06/09 14:07:39;;;;;;;;;;;13.20;99.90;;;;;;4995916;28;20270;-65
2023/06/09 14:10:06;;;;;;;;;;;13.20;99.90;;;;;;4996011;28;19914;-67
2023/06/09 14:12:33;;;;;;;;;;;13.10;99.90;;;;;;4995877;28;19988;-64
2023/06/09 14:15:00;;;;;;;;;;;13.10;99.90;;;;;;4995920;28;20279;-65
2023/06/09 14:17:26;;;;;;;;;;;13.10;99.90;;;;;;4995912;28;20363;-66
2023/06/09 14:19:56;;;;;;;;;;;13.00;99.90;;;;;;4995325;28;19917;-66
2023/06/09 14:22:23;;;;;;;;;;;13.00;99.90;;;;;;4995962;28;20024;-65
2023/06/09 14:24:49;;;;;;;;;;;13.00;99.90;;;;;;4995606;28;19997;-65